Montauk, New York
Current Conditions -  °F | °C
As of 6:21 AM on Sunday 21 Dec 2014 (Local Time) from KGON Reporting Station
Light Snow Light Snow  
Wind Chill: 24°   Ceiling: 1400
Heat Index: 32°   Visibility: 2mi
Dew Point: 31°   Wind: 9mph
Humidity: 96%   Direction: 360°N
Pressure: 30.25"   Gusts: NA
Location:  41.04°N, 71.95°W
Report Text: KGON 211121Z AUTO 36008KT 2SM -SN BR BKN014 OVC018 00/M01 A3025 RMK AO2 P0000 T00001006
Loading
Personal Weather Stations






























Interactive Weather Map New forecast layout! Learn more

10-Day Weather Forecast

Advertisements
Track Severe Weather on mobile